createdAt,value
2019-04-30T00:01:25.233Z,12.40
2019-04-30T00:03:59.176Z,12.40
2019-04-30T00:06:27.433Z,12.40
2019-04-30T00:08:57.679Z,12.40
2019-04-30T00:11:26.630Z,12.50
2019-04-30T00:13:58.673Z,12.50
2019-04-30T00:16:25.665Z,12.40
2019-04-30T00:19:00.469Z,12.40
2019-04-30T00:21:27.273Z,12.40
2019-04-30T00:23:56.194Z,12.40
2019-04-30T00:26:25.332Z,12.30
2019-04-30T00:28:56.886Z,12.30
2019-04-30T00:31:27.457Z,12.30
2019-04-30T00:33:57.867Z,12.30
2019-04-30T00:36:28.977Z,12.40
2019-04-30T00:38:56.350Z,12.40
2019-04-30T00:41:25.623Z,12.40
2019-04-30T00:43:55.154Z,12.30
2019-04-30T00:46:27.225Z,12.30
2019-04-30T00:48:56.812Z,12.20
2019-04-30T00:51:26.212Z,12.30
2019-04-30T00:53:55.795Z,12.30
2019-04-30T00:56:28.196Z,12.30
2019-04-30T00:58:57.778Z,12.30
2019-04-30T01:01:37.400Z,12.30
2019-04-30T01:04:08.470Z,12.30
2019-04-30T01:06:37.110Z,12.30
2019-04-30T01:09:08.714Z,12.40
2019-04-30T01:11:39.791Z,12.30
2019-04-30T01:14:06.605Z,12.40
2019-04-30T01:16:35.145Z,12.30
2019-04-30T01:19:07.872Z,12.30
2019-04-30T01:21:34.018Z,12.30
2019-04-30T01:24:02.812Z,12.30
2019-04-30T01:26:31.689Z,12.30
2019-04-30T01:29:02.063Z,12.20
2019-04-30T01:31:31.622Z,12.20
2019-04-30T01:34:05.248Z,12.20
2019-04-30T01:36:31.354Z,12.20
2019-04-30T01:39:00.277Z,12.20
2019-04-30T01:41:31.424Z,12.20
2019-04-30T01:43:59.153Z,12.20
2019-04-30T01:46:29.162Z,12.20
2019-04-30T01:48:58.829Z,12.10
2019-04-30T01:51:28.603Z,12.10
2019-04-30T01:53:57.370Z,12.10
2019-04-30T01:56:30.469Z,12.10
2019-04-30T01:59:06.495Z,12.10
2019-04-30T02:01:38.937Z,12.10
2019-04-30T02:04:08.503Z,12.10
2019-04-30T02:06:39.119Z,12.10
2019-04-30T02:09:09.095Z,12.10
2019-04-30T02:11:38.830Z,12.10
2019-04-30T02:14:09.010Z,12.10
2019-04-30T02:16:39.454Z,12.10
2019-04-30T02:19:09.132Z,12.20
2019-04-30T02:21:38.580Z,12.10
2019-04-30T02:24:08.938Z,12.10
2019-04-30T02:26:38.506Z,12.00
2019-04-30T02:29:09.080Z,12.00
2019-04-30T02:31:40.565Z,12.00
2019-04-30T02:34:13.710Z,12.00
2019-04-30T02:36:43.937Z,12.00
2019-04-30T02:39:12.479Z,12.00
2019-04-30T02:41:42.016Z,12.00
2019-04-30T02:44:11.788Z,12.00
2019-04-30T02:46:43.455Z,12.10
2019-04-30T02:49:12.850Z,12.00
2019-04-30T02:51:44.077Z,11.90
2019-04-30T02:54:23.886Z,12.00
2019-04-30T02:56:53.930Z,12.00
2019-04-30T02:59:22.428Z,12.00
2019-04-30T03:01:51.049Z,11.90
2019-04-30T03:04:19.818Z,11.90
2019-04-30T03:06:50.286Z,11.90
2019-04-30T03:09:20.238Z,12.00
2019-04-30T03:11:49.837Z,12.00
2019-04-30T03:14:20.237Z,12.00
2019-04-30T03:16:56.351Z,11.90
2019-04-30T03:19:32.519Z,11.90
2019-04-30T03:22:02.613Z,11.90
2019-04-30T03:24:31.094Z,11.80
2019-04-30T03:26:59.761Z,11.90
2019-04-30T03:29:30.259Z,11.90
2019-04-30T03:32:02.895Z,11.90
2019-04-30T03:34:32.810Z,11.90
2019-04-30T03:37:01.629Z,11.90
2019-04-30T03:39:30.544Z,11.90
2019-04-30T03:41:59.715Z,11.90
2019-04-30T03:44:31.767Z,11.90
2019-04-30T03:46:59.402Z,11.90
2019-04-30T03:49:29.893Z,11.90
2019-04-30T03:51:59.954Z,11.90
2019-04-30T03:54:29.282Z,11.80
2019-04-30T03:57:00.778Z,11.90
2019-04-30T03:59:30.305Z,11.90
2019-04-30T04:02:12.210Z,11.90
2019-04-30T04:04:39.643Z,11.80
2019-04-30T04:07:25.198Z,11.90
2019-04-30T04:09:55.406Z,11.80
2019-04-30T04:12:30.202Z,11.90
2019-04-30T04:15:00.744Z,11.90
2019-04-30T04:17:31.068Z,11.80
2019-04-30T04:19:59.879Z,11.90
2019-04-30T04:22:30.554Z,11.80
2019-04-30T04:24:59.984Z,11.80
2019-04-30T04:27:30.152Z,11.80
2019-04-30T04:30:01.046Z,11.80
2019-04-30T04:32:30.792Z,11.80
2019-04-30T04:35:00.333Z,11.80
2019-04-30T04:37:30.123Z,11.80
2019-04-30T04:39:59.571Z,11.80
2019-04-30T04:42:32.838Z,11.90
2019-04-30T04:45:00.296Z,11.90
2019-04-30T04:47:30.775Z,11.90
2019-04-30T04:50:00.773Z,11.80
2019-04-30T04:52:31.453Z,11.80
2019-04-30T04:55:00.346Z,11.90
2019-04-30T04:57:30.539Z,11.80
2019-04-30T05:00:06.426Z,11.80
2019-04-30T05:02:32.754Z,11.80
2019-04-30T05:05:01.320Z,11.90
2019-04-30T05:07:29.915Z,11.80
2019-04-30T05:10:00.612Z,11.80
2019-04-30T05:12:29.728Z,11.80
2019-04-30T05:14:59.795Z,11.90
2019-04-30T05:17:29.717Z,11.90
2019-04-30T05:19:58.972Z,11.80
2019-04-30T05:22:29.297Z,11.80
2019-04-30T05:24:58.964Z,11.80
2019-04-30T05:27:27.867Z,11.80
2019-04-30T05:29:56.336Z,11.90
2019-04-30T05:32:24.873Z,11.90
2019-04-30T05:34:53.369Z,11.80
2019-04-30T05:37:22.564Z,11.80
2019-04-30T05:39:51.294Z,11.80
2019-04-30T05:42:19.915Z,11.80
2019-04-30T05:44:49.745Z,11.80
2019-04-30T05:47:19.629Z,11.80
2019-04-30T05:49:48.976Z,11.80
2019-04-30T05:52:19.965Z,11.70
2019-04-30T05:54:48.741Z,11.80
2019-04-30T05:57:19.626Z,11.70
2019-04-30T05:59:48.678Z,11.70
2019-04-30T06:02:19.265Z,11.60
2019-04-30T06:04:50.106Z,11.70
2019-04-30T06:07:19.090Z,11.70
2019-04-30T06:09:51.254Z,11.80
2019-04-30T06:12:33.848Z,11.80
2019-04-30T06:15:20.410Z,11.60
2019-04-30T06:17:59.633Z,11.60
2019-04-30T06:20:21.175Z,11.60
2019-04-30T06:22:52.232Z,11.50
2019-04-30T06:25:31.562Z,11.50
2019-04-30T06:27:52.181Z,11.50
2019-04-30T06:30:20.746Z,11.50
2019-04-30T06:32:49.714Z,11.60
2019-04-30T06:35:19.349Z,11.60
2019-04-30T06:37:48.886Z,11.70
2019-04-30T06:40:19.686Z,11.70
2019-04-30T06:42:49.555Z,11.60
2019-04-30T06:45:19.295Z,11.60
2019-04-30T06:47:48.982Z,11.60
2019-04-30T06:50:19.382Z,11.60
2019-04-30T06:52:56.210Z,11.70
2019-04-30T06:55:19.309Z,11.80
2019-04-30T06:57:49.686Z,11.80
2019-04-30T07:00:20.677Z,11.90
2019-04-30T07:02:49.415Z,11.90
2019-04-30T07:05:18.623Z,11.90
2019-04-30T07:07:48.980Z,12.00
2019-04-30T07:10:20.522Z,12.10
2019-04-30T07:12:50.777Z,12.10
2019-04-30T07:15:19.732Z,12.10
2019-04-30T07:17:49.140Z,12.20
2019-04-30T07:20:19.141Z,12.30
2019-04-30T07:22:52.524Z,12.20
2019-04-30T07:25:19.509Z,12.30
2019-04-30T07:27:50.462Z,12.40
2019-04-30T07:30:19.232Z,12.40
2019-04-30T07:32:48.787Z,12.40
2019-04-30T07:35:19.577Z,12.50
2019-04-30T07:37:49.778Z,12.60
2019-04-30T07:40:19.104Z,12.60
2019-04-30T07:42:49.236Z,12.70
2019-04-30T07:45:19.403Z,12.60
2019-04-30T07:47:49.498Z,12.70
2019-04-30T07:50:21.142Z,12.70
2019-04-30T07:53:01.820Z,12.70
2019-04-30T07:55:19.578Z,12.60
2019-04-30T07:57:50.602Z,12.50
2019-04-30T08:00:19.405Z,12.70
2019-04-30T08:02:59.909Z,12.70
2019-04-30T08:05:36.608Z,12.70
2019-04-30T08:08:17.715Z,12.70
2019-04-30T08:10:35.383Z,12.70
2019-04-30T08:13:10.310Z,12.80
2019-04-30T08:15:34.182Z,12.90
2019-04-30T08:18:05.732Z,13.00
2019-04-30T08:20:32.831Z,13.10
2019-04-30T08:23:13.369Z,13.20
2019-04-30T08:25:31.818Z,13.20
2019-04-30T08:28:00.371Z,13.30
2019-04-30T08:30:30.017Z,13.20
2019-04-30T08:32:59.525Z,13.10
2019-04-30T08:35:29.621Z,13.30
2019-04-30T08:37:59.078Z,13.20
2019-04-30T08:40:29.623Z,13.30
2019-04-30T08:42:59.475Z,13.30
2019-04-30T08:45:31.484Z,13.20
2019-04-30T08:47:59.026Z,13.40
2019-04-30T08:50:29.716Z,13.30
2019-04-30T08:52:59.777Z,13.30
2019-04-30T08:55:30.490Z,13.30
2019-04-30T08:58:09.298Z,13.30
2019-04-30T09:00:29.738Z,13.40
2019-04-30T09:02:59.341Z,13.50
2019-04-30T09:05:35.778Z,13.40
2019-04-30T09:08:05.896Z,13.40
2019-04-30T09:10:35.042Z,13.40
2019-04-30T09:13:03.784Z,13.50
2019-04-30T09:15:32.320Z,13.70
2019-04-30T09:18:06.375Z,13.70
2019-04-30T09:20:31.183Z,13.90
2019-04-30T09:22:59.704Z,13.90
2019-04-30T09:25:28.800Z,13.90
2019-04-30T09:27:58.789Z,14.00
2019-04-30T09:30:29.778Z,14.30
2019-04-30T09:32:59.519Z,14.70
2019-04-30T09:35:30.119Z,15.00
2019-04-30T09:38:01.626Z,15.40
2019-04-30T09:40:32.295Z,16.20
2019-04-30T09:43:00.447Z,17.20
2019-04-30T09:45:29.334Z,17.90
2019-04-30T09:47:59.246Z,17.90
2019-04-30T09:50:28.935Z,17.30
2019-04-30T09:53:00.113Z,17.30
2019-04-30T09:55:29.080Z,18.10
2019-04-30T09:57:58.877Z,17.50
2019-04-30T10:00:29.488Z,17.80
2019-04-30T10:02:59.851Z,18.10
2019-04-30T10:05:29.299Z,17.50
2019-04-30T10:07:59.345Z,16.90
2019-04-30T10:10:29.934Z,17.20
2019-04-30T10:12:59.244Z,17.50
2019-04-30T10:15:44.285Z,17.40
2019-04-30T10:18:12.850Z,17.10
2019-04-30T10:20:44.137Z,16.50
2019-04-30T10:23:12.698Z,16.30
2019-04-30T10:25:41.381Z,17.60
2019-04-30T10:28:10.171Z,18.50
2019-04-30T10:30:39.316Z,18.80
2019-04-30T10:33:10.006Z,18.30
2019-04-30T10:35:38.631Z,17.90
2019-04-30T10:38:07.268Z,18.50
2019-04-30T10:40:35.765Z,19.10
2019-04-30T10:43:04.491Z,19.60
2019-04-30T10:45:33.249Z,20.00
2019-04-30T10:48:01.758Z,19.80
2019-04-30T10:50:30.445Z,19.10
2019-04-30T10:52:59.171Z,19.50
2019-04-30T10:55:28.697Z,20.00
2019-04-30T10:57:59.361Z,19.50
2019-04-30T11:00:39.897Z,19.10
2019-04-30T11:03:19.611Z,18.60
2019-04-30T11:05:41.295Z,19.70
2019-04-30T11:08:10.316Z,20.00
2019-04-30T11:10:39.911Z,20.00
2019-04-30T11:13:08.816Z,20.40
2019-04-30T11:15:39.298Z,20.90
2019-04-30T11:18:07.799Z,21.00
2019-04-30T11:20:36.700Z,21.20
2019-04-30T11:23:14.339Z,21.10
2019-04-30T11:25:37.146Z,20.20
2019-04-30T11:28:06.751Z,19.90
2019-04-30T11:30:38.623Z,20.20
2019-04-30T11:33:07.171Z,21.10
2019-04-30T11:35:35.902Z,21.00
2019-04-30T11:38:04.532Z,20.50
2019-04-30T11:40:36.829Z,20.00
2019-04-30T11:43:03.611Z,19.90
2019-04-30T11:45:52.070Z,20.50
2019-04-30T11:48:20.633Z,20.80
2019-04-30T11:50:49.739Z,20.80
2019-04-30T11:53:25.303Z,20.40
2019-04-30T11:55:49.169Z,19.70
2019-04-30T11:58:21.620Z,20.00
2019-04-30T12:00:49.483Z,19.70
2019-04-30T12:03:19.231Z,19.00
2019-04-30T12:05:49.001Z,19.10
2019-04-30T12:08:31.813Z,19.70
2019-04-30T12:11:01.980Z,19.90
2019-04-30T12:13:31.685Z,19.60
2019-04-30T12:16:01.252Z,19.00
2019-04-30T12:18:29.851Z,18.90
2019-04-30T12:20:58.456Z,18.90
2019-04-30T12:23:26.927Z,19.00
2019-04-30T12:25:55.537Z,19.00
2019-04-30T12:28:24.026Z,19.40
2019-04-30T12:30:52.492Z,19.80
2019-04-30T12:33:21.047Z,19.40
2019-04-30T12:35:51.356Z,19.40
2019-04-30T12:38:19.782Z,19.00
2019-04-30T12:40:48.426Z,18.40
2019-04-30T12:43:16.897Z,18.40
2019-04-30T12:45:45.556Z,18.30
2019-04-30T12:48:20.253Z,18.20
2019-04-30T12:51:06.248Z,18.00
2019-04-30T12:53:37.611Z,17.90
2019-04-30T12:56:27.097Z,17.90
2019-04-30T12:58:56.141Z,17.30
2019-04-30T13:01:24.895Z,17.20
2019-04-30T13:03:58.699Z,17.10
2019-04-30T13:06:24.174Z,16.80
2019-04-30T13:08:53.608Z,16.80
2019-04-30T13:11:23.161Z,17.00
2019-04-30T13:13:52.980Z,17.00
2019-04-30T13:16:21.747Z,17.00
2019-04-30T13:18:50.282Z,17.00
2019-04-30T13:21:18.842Z,17.00
2019-04-30T13:23:47.325Z,17.10
2019-04-30T13:26:18.552Z,16.90
2019-04-30T13:29:06.802Z,17.00
2019-04-30T13:31:35.392Z,16.90
2019-04-30T13:34:21.848Z,17.10
2019-04-30T13:36:50.390Z,17.20
2019-04-30T13:39:20.567Z,17.40
2019-04-30T13:41:59.532Z,17.30
2019-04-30T13:44:29.733Z,17.00
2019-04-30T13:46:58.266Z,17.00
2019-04-30T13:49:30.091Z,17.00
2019-04-30T13:51:57.000Z,16.90
2019-04-30T13:54:25.566Z,16.60
2019-04-30T13:56:54.196Z,16.40
2019-04-30T13:59:22.672Z,16.50
2019-04-30T14:01:51.154Z,16.60
2019-04-30T14:04:24.507Z,16.80
2019-04-30T14:06:57.488Z,16.90
2019-04-30T14:09:30.390Z,16.90
2019-04-30T14:11:58.866Z,16.80
2019-04-30T14:14:29.212Z,16.80
2019-04-30T14:16:58.691Z,16.80
2019-04-30T14:19:29.520Z,16.80
2019-04-30T14:21:58.987Z,16.90
2019-04-30T14:24:27.821Z,16.70
2019-04-30T14:26:56.401Z,16.60
2019-04-30T14:29:24.940Z,16.60
2019-04-30T14:31:53.511Z,16.50
2019-04-30T14:34:22.087Z,16.60
2019-04-30T14:36:50.820Z,16.80
2019-04-30T14:39:20.358Z,16.90
2019-04-30T14:41:51.777Z,16.90
2019-04-30T14:44:21.420Z,16.60
2019-04-30T14:46:54.908Z,16.50
2019-04-30T14:49:34.941Z,16.60
2019-04-30T14:52:04.837Z,16.50
2019-04-30T14:54:35.024Z,16.50
2019-04-30T14:57:07.913Z,16.50
2019-04-30T14:59:52.772Z,16.30
2019-04-30T15:02:25.748Z,16.30
2019-04-30T15:04:54.311Z,16.40
2019-04-30T15:07:22.796Z,16.60
2019-04-30T15:09:51.364Z,16.50
2019-04-30T15:12:19.985Z,16.50
2019-04-30T15:14:49.316Z,16.60
2019-04-30T15:17:18.161Z,16.70
2019-04-30T15:19:48.814Z,16.60
2019-04-30T15:22:18.905Z,16.60
2019-04-30T15:24:49.091Z,16.40
2019-04-30T15:27:19.129Z,16.40
2019-04-30T15:29:56.582Z,16.50
2019-04-30T15:32:18.648Z,16.30
2019-04-30T15:34:48.934Z,16.40
2019-04-30T15:37:21.798Z,16.50
2019-04-30T15:39:49.016Z,16.50
2019-04-30T15:42:19.104Z,16.40
2019-04-30T15:44:49.485Z,16.50
2019-04-30T15:47:19.066Z,16.40
2019-04-30T15:49:49.678Z,16.40
2019-04-30T15:52:18.923Z,16.30
2019-04-30T15:54:49.100Z,16.30
2019-04-30T15:57:18.966Z,16.10
2019-04-30T15:59:47.717Z,16.10
2019-04-30T16:02:18.750Z,16.00
2019-04-30T16:05:05.123Z,16.00
2019-04-30T16:07:35.618Z,16.00
2019-04-30T16:10:14.265Z,16.00
2019-04-30T16:12:44.596Z,16.00
2019-04-30T16:15:13.356Z,15.90
2019-04-30T16:17:43.558Z,15.80
2019-04-30T16:20:12.180Z,15.60
2019-04-30T16:22:40.734Z,15.60
2019-04-30T16:25:09.332Z,15.70
2019-04-30T16:27:37.864Z,15.80
2019-04-30T16:30:06.875Z,15.70
2019-04-30T16:32:35.365Z,15.50
2019-04-30T16:35:05.572Z,15.30
2019-04-30T16:37:34.093Z,15.30
2019-04-30T16:40:02.799Z,15.30
2019-04-30T16:42:31.268Z,15.30
2019-04-30T16:45:00.825Z,15.20
2019-04-30T16:47:29.738Z,15.00
2019-04-30T16:49:58.919Z,15.10
2019-04-30T16:52:29.303Z,15.40
2019-04-30T16:54:57.854Z,15.50
2019-04-30T16:57:29.943Z,15.60
2019-04-30T16:59:56.551Z,15.60
2019-04-30T17:02:26.696Z,15.60
2019-04-30T17:04:56.953Z,15.60
2019-04-30T17:07:28.888Z,15.70
2019-04-30T17:10:10.978Z,15.40
2019-04-30T17:12:51.488Z,15.40
2019-04-30T17:15:21.905Z,15.30
2019-04-30T17:17:50.387Z,15.20
2019-04-30T17:20:20.891Z,15.40
2019-04-30T17:22:49.877Z,15.40
2019-04-30T17:25:19.083Z,15.40
2019-04-30T17:27:47.584Z,15.50
2019-04-30T17:30:19.181Z,15.40
2019-04-30T17:32:49.678Z,15.30
2019-04-30T17:35:19.076Z,15.30
2019-04-30T17:37:47.735Z,15.10
2019-04-30T17:40:19.093Z,15.20
2019-04-30T17:42:47.539Z,15.10
2019-04-30T17:45:16.616Z,15.10
2019-04-30T17:47:45.164Z,15.10
2019-04-30T17:50:14.206Z,15.10
2019-04-30T17:52:42.695Z,15.00
2019-04-30T17:55:11.313Z,15.00
2019-04-30T17:57:40.406Z,14.90
2019-04-30T18:00:18.893Z,14.90
2019-04-30T18:02:42.350Z,14.90
2019-04-30T18:05:11.394Z,14.90
2019-04-30T18:07:40.271Z,14.80
2019-04-30T18:10:10.783Z,14.80
2019-04-30T18:12:39.416Z,14.80
2019-04-30T18:15:12.641Z,14.80
2019-04-30T18:17:42.913Z,14.70
2019-04-30T18:20:25.632Z,14.50
2019-04-30T18:22:58.962Z,14.50
2019-04-30T18:25:32.071Z,14.50
2019-04-30T18:28:02.221Z,14.50
2019-04-30T18:30:32.443Z,14.40
2019-04-30T18:33:01.005Z,14.40
2019-04-30T18:35:29.513Z,14.30
2019-04-30T18:37:58.627Z,14.40
2019-04-30T18:40:27.270Z,14.20
2019-04-30T18:42:55.899Z,14.10
2019-04-30T18:45:24.450Z,14.10
2019-04-30T18:47:53.039Z,14.00
2019-04-30T18:50:21.651Z,14.00
2019-04-30T18:52:52.068Z,13.90
2019-04-30T18:55:20.711Z,14.00
2019-04-30T18:57:56.513Z,13.90
2019-04-30T19:00:36.961Z,13.80
2019-04-30T19:03:05.642Z,13.80
2019-04-30T19:05:34.617Z,13.80
2019-04-30T19:08:04.841Z,13.70
2019-04-30T19:10:44.123Z,13.80
2019-04-30T19:13:30.702Z,13.70
2019-04-30T19:16:23.045Z,13.70
2019-04-30T19:18:48.902Z,13.60
2019-04-30T19:21:17.597Z,13.70
2019-04-30T19:23:46.161Z,13.60
2019-04-30T19:26:14.777Z,13.50
2019-04-30T19:28:43.340Z,13.40
2019-04-30T19:31:12.821Z,13.40
2019-04-30T19:33:41.305Z,13.30
2019-04-30T19:36:09.945Z,13.30
2019-04-30T19:38:38.580Z,13.30
2019-04-30T19:44:20.650Z,13.00
2019-04-30T19:50:22.683Z,13.00
2019-04-30T19:52:51.490Z,13.00
2019-04-30T19:55:20.704Z,12.90
2019-04-30T19:57:51.120Z,12.90
2019-04-30T20:00:20.790Z,12.80
2019-04-30T20:02:49.761Z,12.70
2019-04-30T20:05:19.417Z,12.60
2019-04-30T20:07:49.339Z,12.60
2019-04-30T20:10:19.560Z,12.60
2019-04-30T20:12:49.777Z,12.60
2019-04-30T20:15:21.779Z,12.50
2019-04-30T20:17:49.901Z,12.60
2019-04-30T20:20:18.975Z,12.50
2019-04-30T20:22:47.592Z,12.50
2019-04-30T20:25:16.347Z,12.50
2019-04-30T20:27:44.808Z,12.40
2019-04-30T20:30:13.520Z,12.40
2019-04-30T20:32:42.045Z,12.30
2019-04-30T20:35:10.760Z,12.20
2019-04-30T20:37:56.871Z,12.10
2019-04-30T20:40:27.049Z,12.20
2019-04-30T20:42:55.557Z,12.20
2019-04-30T20:45:24.136Z,12.10
2019-04-30T20:47:52.616Z,12.20
2019-04-30T20:50:21.250Z,12.10
2019-04-30T20:52:49.761Z,12.10
2019-04-30T20:55:18.225Z,12.00
2019-04-30T20:57:46.709Z,12.00
2019-04-30T21:00:16.146Z,12.00
2019-04-30T21:02:44.644Z,11.90
2019-04-30T21:05:13.269Z,11.90
2019-04-30T21:07:41.918Z,11.80
2019-04-30T21:10:10.690Z,11.80
2019-04-30T21:12:39.652Z,11.80
2019-04-30T21:15:09.681Z,11.80
2019-04-30T21:17:38.490Z,11.70
2019-04-30T21:20:09.622Z,11.70
2019-04-30T21:22:38.823Z,11.70
2019-04-30T21:25:09.312Z,11.70
2019-04-30T21:27:40.088Z,11.70
2019-04-30T21:30:12.094Z,11.60
2019-04-30T21:32:51.210Z,11.60
2019-04-30T21:35:24.180Z,11.50
2019-04-30T21:37:54.565Z,11.40
2019-04-30T21:40:23.178Z,11.40
2019-04-30T21:42:51.675Z,11.40
2019-04-30T21:45:20.152Z,11.30
2019-04-30T21:47:56.089Z,11.20
2019-04-30T21:50:19.667Z,11.20
2019-04-30T21:52:49.546Z,11.00
2019-04-30T21:55:19.791Z,11.00
2019-04-30T21:57:49.644Z,11.00
2019-04-30T22:00:34.398Z,10.90
2019-04-30T22:03:04.329Z,10.90
2019-04-30T22:05:32.870Z,10.80
2019-04-30T22:08:01.345Z,10.80
2019-04-30T22:10:29.908Z,10.70
2019-04-30T22:12:58.717Z,10.70
2019-04-30T22:15:27.359Z,10.70
2019-04-30T22:17:55.928Z,10.60
2019-04-30T22:20:24.436Z,10.60
2019-04-30T22:22:52.930Z,10.50
2019-04-30T22:25:21.424Z,10.40
2019-04-30T22:27:49.983Z,10.30
2019-04-30T22:30:18.570Z,10.30
2019-04-30T22:32:47.052Z,10.30
2019-04-30T22:35:26.309Z,10.20
2019-04-30T22:37:56.502Z,10.10
2019-04-30T22:40:25.188Z,10.10
2019-04-30T22:42:53.692Z,10.10
2019-04-30T22:45:23.934Z,10.00
2019-04-30T22:47:52.435Z,10.00
2019-04-30T22:50:20.969Z,9.90
2019-04-30T22:52:49.547Z,9.90
2019-04-30T22:55:18.012Z,9.80
2019-04-30T22:57:46.495Z,9.80
2019-04-30T23:00:18.572Z,9.80
2019-04-30T23:02:58.015Z,9.80
2019-04-30T23:05:26.524Z,9.70
2019-04-30T23:07:55.076Z,9.70
2019-04-30T23:10:23.622Z,9.70
2019-04-30T23:12:52.270Z,9.60
2019-04-30T23:15:21.978Z,9.60
2019-04-30T23:17:50.506Z,9.60
2019-04-30T23:20:18.995Z,9.50
2019-04-30T23:22:47.472Z,9.40
2019-04-30T23:25:16.931Z,9.40
2019-04-30T23:27:45.600Z,9.40
2019-04-30T23:30:14.520Z,9.40
2019-04-30T23:32:43.023Z,9.30
2019-04-30T23:35:12.034Z,9.20
2019-04-30T23:37:40.579Z,9.20
2019-04-30T23:40:27.159Z,9.10
2019-04-30T23:42:56.271Z,9.20
2019-04-30T23:45:24.878Z,9.20
2019-04-30T23:47:53.469Z,9.20
2019-04-30T23:50:22.122Z,9.10
2019-04-30T23:52:50.651Z,9.10
2019-04-30T23:55:19.131Z,9.00
2019-04-30T23:57:47.796Z,9.00
